createdAt,value
2019-01-26T00:03:51.028Z,-2.82
2019-01-26T00:06:16.887Z,-2.74
2019-01-26T00:08:42.657Z,-2.78
2019-01-26T00:11:08.526Z,-2.70
2019-01-26T00:13:34.282Z,-2.69
2019-01-26T00:16:21.180Z,-2.65
2019-01-26T00:18:47.606Z,-2.65
2019-01-26T00:21:13.376Z,-2.68
2019-01-26T00:23:39.135Z,-2.65
2019-01-26T00:26:04.919Z,-2.60
2019-01-26T00:28:30.672Z,-2.60
2019-01-26T00:30:56.441Z,-2.57
2019-01-26T00:33:22.199Z,-2.59
2019-01-26T00:35:48.144Z,-2.54
2019-01-26T00:38:13.902Z,-2.49
2019-01-26T00:40:39.673Z,-2.43
2019-01-26T00:43:05.427Z,-2.46
2019-01-26T00:45:31.203Z,-2.44
2019-01-26T00:47:56.962Z,-2.39
2019-01-26T00:50:22.735Z,-2.37
2019-01-26T00:52:48.823Z,-2.33
2019-01-26T00:55:14.699Z,-2.31
2019-01-26T00:57:40.457Z,-2.26
2019-01-26T01:00:26.108Z,-2.24
2019-01-26T01:02:51.874Z,-2.18
2019-01-26T01:05:17.662Z,-2.09
2019-01-26T01:08:25.113Z,-2.07
2019-01-26T01:10:50.867Z,-2.04
2019-01-26T01:13:16.616Z,-1.99
2019-01-26T01:15:42.378Z,-1.95
2019-01-26T01:18:08.128Z,-1.94
2019-01-26T01:20:33.912Z,-1.91
2019-01-26T01:22:59.684Z,-1.84
2019-01-26T01:25:25.431Z,-1.79
2019-01-26T01:27:51.204Z,-1.75
2019-01-26T01:30:36.863Z,-1.72
2019-01-26T01:33:02.753Z,-1.70
2019-01-26T01:35:28.502Z,-1.62
2019-01-26T01:37:54.283Z,-1.61
2019-01-26T01:40:20.029Z,-1.57
2019-01-26T01:42:45.796Z,-1.54
2019-01-26T01:45:53.236Z,-1.51
2019-01-26T01:48:18.986Z,-1.50
2019-01-26T01:50:44.740Z,-1.43
2019-01-26T01:55:44.144Z,-1.41
2019-01-26T01:58:09.913Z,-1.37
2019-01-26T02:00:35.672Z,-1.37
2019-01-26T02:03:01.442Z,-1.33
2019-01-26T02:05:27.194Z,-1.29
2019-01-26T02:07:52.978Z,-1.24
2019-01-26T02:11:00.425Z,-1.25
2019-01-26T02:13:26.193Z,-1.21
2019-01-26T02:15:51.921Z,-1.20
2019-01-26T02:18:17.735Z,-1.16
2019-01-26T02:20:43.488Z,-1.16
2019-01-26T02:23:09.368Z,-1.15
2019-01-26T02:25:35.119Z,-1.12
2019-01-26T02:28:00.889Z,-1.07
2019-01-26T02:30:26.656Z,-1.07
2019-01-26T02:32:52.420Z,-1.02
2019-01-26T02:35:18.177Z,-1.01
2019-01-26T02:37:43.950Z,-0.98
2019-01-26T02:40:52.351Z,-0.97
2019-01-26T02:43:19.055Z,-0.94
2019-01-26T02:45:44.805Z,-0.87
2019-01-26T02:48:10.579Z,-0.84
2019-01-26T02:50:36.329Z,-0.82
2019-01-26T02:53:02.112Z,-0.85
2019-01-26T02:55:27.867Z,-0.84
2019-01-26T02:57:53.736Z,-0.84
2019-01-26T03:01:01.161Z,-0.82
2019-01-26T03:03:26.940Z,-0.79
2019-01-26T03:05:52.689Z,-0.80
2019-01-26T03:08:18.473Z,-0.77
2019-01-26T03:10:44.235Z,-0.73
2019-01-26T03:13:10.000Z,-0.71
2019-01-26T03:15:35.752Z,-0.69
2019-01-26T03:18:01.525Z,-0.66
2019-01-26T03:20:27.276Z,-0.66
2019-01-26T03:22:53.061Z,-0.65
2019-01-26T03:25:18.816Z,-0.63
2019-01-26T03:27:44.588Z,-0.59
2019-01-26T03:30:30.232Z,-0.56
2019-01-26T03:32:56.001Z,-0.53
2019-01-26T03:35:21.747Z,-0.50
2019-01-26T03:37:47.524Z,-0.49
2019-01-26T03:40:54.958Z,-0.48
2019-01-26T03:43:20.762Z,-0.47
2019-01-26T03:45:46.530Z,-0.44
2019-01-26T03:48:12.301Z,-0.39
2019-01-26T03:50:38.056Z,-0.36
2019-01-26T03:53:03.828Z,-0.32
2019-01-26T03:55:29.584Z,-0.29
2019-01-26T03:57:55.350Z,-0.28
2019-01-26T04:00:41.036Z,-0.26
2019-01-26T04:03:06.782Z,-0.27
2019-01-26T04:05:32.641Z,-0.29
2019-01-26T04:07:58.459Z,-0.29
2019-01-26T04:10:24.225Z,-0.26
2019-01-26T04:12:49.976Z,-0.27
2019-01-26T04:15:57.445Z,-0.24
2019-01-26T04:18:23.182Z,-0.22
2019-01-26T04:23:22.532Z,-0.17
2019-01-26T04:25:48.292Z,-0.11
2019-01-26T04:28:14.141Z,-0.12
2019-01-26T04:30:39.913Z,-0.06
2019-01-26T04:35:53.196Z,-0.05
2019-01-26T04:38:18.945Z,-0.05
2019-01-26T04:40:45.015Z,-0.09
2019-01-26T04:45:58.473Z,-0.01
2019-01-26T04:48:24.226Z,0.04
2019-01-26T04:50:49.997Z,0.07
2019-01-26T04:53:15.751Z,0.15
2019-01-26T04:55:41.667Z,0.22
2019-01-26T04:58:07.411Z,0.26
2019-01-26T05:00:33.175Z,0.25
2019-01-26T05:02:58.931Z,0.36
2019-01-26T05:05:24.711Z,0.37
2019-01-26T05:08:32.153Z,0.43
2019-01-26T05:10:57.922Z,0.44
2019-01-26T05:13:23.679Z,0.58
2019-01-26T05:15:49.444Z,0.56
2019-01-26T05:18:15.204Z,0.64
2019-01-26T05:20:40.952Z,0.69
2019-01-26T05:23:06.715Z,0.66
2019-01-26T05:25:32.467Z,0.72
2019-01-26T05:27:58.254Z,0.72
2019-01-26T05:31:05.713Z,0.71
2019-01-26T05:33:31.457Z,0.69
2019-01-26T05:35:57.219Z,0.82
2019-01-26T05:38:22.988Z,0.79
2019-01-26T05:40:48.740Z,0.85
2019-01-26T05:43:14.517Z,0.87
2019-01-26T05:45:40.262Z,0.85
2019-01-26T05:48:25.915Z,0.91
2019-01-26T05:50:51.664Z,0.90
2019-01-26T05:53:17.442Z,0.89
2019-01-26T05:55:43.195Z,0.95
2019-01-26T05:58:09.058Z,0.94
2019-01-26T06:03:22.133Z,0.98
2019-01-26T06:05:47.883Z,1.01
2019-01-26T06:08:13.660Z,1.02
2019-01-26T06:10:39.409Z,1.05
2019-01-26T06:13:05.180Z,1.09
2019-01-26T06:15:30.939Z,1.09
2019-01-26T06:17:56.703Z,1.11
2019-01-26T06:20:22.505Z,1.10
2019-01-26T06:22:48.322Z,1.13
2019-01-26T06:25:55.753Z,1.10
2019-01-26T06:28:21.524Z,1.09
2019-01-26T06:31:07.173Z,1.10
2019-01-26T06:33:32.941Z,1.10
2019-01-26T06:35:58.697Z,1.11
2019-01-26T06:38:24.459Z,1.07
2019-01-26T06:40:50.228Z,1.09
2019-01-26T06:43:16.002Z,1.10
2019-01-26T06:45:41.751Z,1.09
2019-01-26T06:48:07.528Z,1.11
2019-01-26T06:50:33.282Z,1.11
2019-01-26T06:52:59.030Z,1.08
2019-01-26T06:55:24.899Z,1.07
2019-01-26T06:57:50.662Z,1.13
2019-01-26T07:00:58.112Z,1.13
2019-01-26T07:03:23.881Z,1.13
2019-01-26T07:08:36.963Z,1.11
2019-01-26T07:11:02.703Z,1.12
2019-01-26T07:13:28.468Z,1.14
2019-01-26T07:18:41.552Z,1.11
2019-01-26T07:21:07.402Z,1.12
2019-01-26T07:23:33.200Z,1.18
2019-01-26T07:25:58.953Z,1.14
2019-01-26T07:28:24.703Z,1.17
2019-01-26T07:30:50.481Z,1.18
2019-01-26T07:33:16.229Z,1.23
2019-01-26T07:35:42.097Z,1.25
2019-01-26T07:38:13.533Z,1.29
2019-01-26T07:40:35.530Z,1.31
2019-01-26T07:43:01.281Z,1.31
2019-01-26T07:45:27.069Z,1.32
2019-01-26T07:47:52.827Z,1.33
2019-01-26T07:51:00.283Z,1.38
2019-01-26T07:53:26.041Z,1.37
2019-01-26T07:55:51.806Z,1.35
2019-01-26T07:58:17.553Z,1.36
2019-01-26T08:00:43.321Z,1.35
2019-01-26T08:03:09.071Z,1.34
2019-01-26T08:05:34.838Z,1.30
2019-01-26T08:08:00.591Z,1.28
2019-01-26T08:10:26.379Z,1.38
2019-01-26T08:12:52.230Z,1.41
2019-01-26T08:15:37.871Z,1.38
2019-01-26T08:18:03.630Z,1.43
2019-01-26T08:20:29.408Z,1.39
2019-01-26T08:22:55.164Z,1.44
2019-01-26T08:25:20.932Z,1.44
2019-01-26T08:27:46.777Z,1.43
2019-01-26T08:30:54.406Z,1.47
2019-01-26T08:33:20.377Z,1.47
2019-01-26T08:35:46.156Z,1.53
2019-01-26T08:38:12.008Z,1.61
2019-01-26T08:41:19.458Z,1.61
2019-01-26T08:43:45.224Z,1.61
2019-01-26T08:46:10.984Z,1.69
2019-01-26T08:48:36.737Z,1.77
2019-01-26T08:51:02.500Z,1.85
2019-01-26T08:53:28.251Z,1.80
2019-01-26T08:55:54.018Z,1.78
2019-01-26T08:58:19.777Z,1.77
2019-01-26T09:00:45.537Z,1.84
2019-01-26T09:06:04.783Z,1.86
2019-01-26T09:08:30.542Z,1.87
2019-01-26T09:10:56.328Z,1.86
2019-01-26T09:13:22.077Z,1.89
2019-01-26T09:15:47.825Z,1.91
2019-01-26T09:18:13.600Z,1.94
2019-01-26T09:20:39.349Z,1.97
2019-01-26T09:23:05.216Z,1.99
2019-01-26T09:25:30.966Z,1.98
2019-01-26T09:30:30.731Z,2.01
2019-01-26T09:32:56.518Z,2.05
2019-01-26T09:35:22.268Z,2.06
2019-01-26T09:37:48.034Z,2.04
2019-01-26T09:43:40.881Z,2.08
2019-01-26T09:46:06.629Z,2.15
2019-01-26T09:48:32.386Z,2.20
2019-01-26T09:50:58.149Z,2.21
2019-01-26T09:54:05.607Z,2.25
2019-01-26T09:56:31.361Z,2.27
2019-01-26T09:58:57.135Z,2.36
2019-01-26T10:01:22.890Z,2.39
2019-01-26T10:03:49.494Z,2.44
2019-01-26T10:06:16.320Z,2.44
2019-01-26T10:08:42.092Z,2.43
2019-01-26T10:11:07.935Z,2.44
2019-01-26T10:13:33.702Z,2.50
2019-01-26T10:15:59.452Z,2.51
2019-01-26T10:18:25.217Z,2.49
2019-01-26T10:20:50.970Z,2.49
2019-01-26T10:23:16.883Z,2.46
2019-01-26T10:25:48.615Z,2.49
2019-01-26T10:28:10.295Z,2.51
2019-01-26T10:33:49.480Z,2.55
2019-01-26T10:36:35.256Z,2.60
2019-01-26T10:39:01.030Z,2.60
2019-01-26T10:46:48.400Z,2.60
2019-01-26T10:49:14.174Z,2.62
2019-01-26T10:51:40.129Z,2.69
2019-01-26T10:54:05.983Z,2.72
2019-01-26T10:56:31.740Z,2.71
2019-01-26T10:58:57.578Z,2.74
2019-01-26T11:01:23.431Z,2.73
2019-01-26T11:04:11.305Z,2.74
2019-01-26T11:06:37.285Z,2.76
2019-01-26T11:09:44.737Z,2.80
2019-01-26T11:12:10.481Z,2.76
2019-01-26T11:14:36.245Z,2.80
2019-01-26T11:17:02.102Z,2.80
2019-01-26T11:19:27.883Z,2.82
2019-01-26T11:21:53.633Z,2.81
2019-01-26T11:24:19.389Z,2.83
2019-01-26T11:26:49.259Z,2.87
2019-01-26T11:29:12.808Z,2.86
2019-01-26T11:34:34.001Z,2.93
2019-01-26T11:36:59.845Z,2.93
2019-01-26T11:39:25.611Z,2.94
2019-01-26T11:41:52.924Z,2.93
2019-01-26T11:44:18.774Z,2.98
2019-01-26T11:46:44.642Z,2.95
2019-01-26T11:49:15.038Z,2.98
2019-01-26T11:54:11.774Z,3.01
2019-01-26T11:56:57.727Z,3.00
2019-01-26T11:59:23.526Z,2.97
2019-01-26T12:09:30.797Z,3.04
2019-01-26T12:11:56.566Z,3.07
2019-01-26T12:14:22.314Z,3.07
2019-01-26T12:16:48.077Z,3.06
2019-01-26T12:19:13.834Z,3.05
2019-01-26T12:21:39.654Z,3.05
2019-01-26T12:24:05.433Z,3.05
2019-01-26T12:26:31.191Z,3.03
2019-01-26T12:28:56.945Z,3.02
2019-01-26T12:31:22.714Z,3.05
2019-01-26T12:33:48.468Z,3.05
2019-01-26T12:36:14.272Z,3.03
2019-01-26T12:38:40.038Z,3.06
2019-01-26T12:41:05.797Z,3.18
2019-01-26T12:43:31.575Z,3.17
2019-01-26T12:45:58.205Z,3.12
2019-01-26T12:48:24.070Z,3.07
2019-01-26T12:50:49.829Z,3.07
2019-01-26T12:53:15.592Z,3.08
2019-01-26T12:55:41.345Z,3.09
2019-01-26T12:58:07.110Z,3.04
2019-01-26T13:00:32.864Z,2.99
2019-01-26T13:02:58.631Z,3.03
2019-01-26T13:05:24.423Z,3.07
2019-01-26T13:07:50.201Z,3.04
2019-01-26T13:10:57.635Z,3.03
2019-01-26T13:13:23.429Z,2.97
2019-01-26T13:15:49.148Z,3.06
2019-01-26T13:18:15.113Z,3.09
2019-01-26T13:20:40.866Z,3.09
2019-01-26T13:23:06.731Z,3.10
2019-01-26T13:25:32.580Z,3.14
2019-01-26T13:27:58.346Z,3.20
2019-01-26T13:30:24.201Z,3.21
2019-01-26T13:32:50.015Z,3.21
2019-01-26T13:35:15.765Z,3.28
2019-01-26T13:37:41.531Z,3.36
2019-01-26T13:40:28.069Z,3.35
2019-01-26T13:42:53.824Z,3.33
2019-01-26T13:45:19.589Z,3.30
2019-01-26T13:47:45.396Z,3.31
2019-01-26T13:50:52.829Z,3.33
2019-01-26T13:53:18.595Z,3.37
2019-01-26T13:55:44.346Z,3.37
2019-01-26T13:58:10.105Z,3.38
2019-01-26T14:04:02.983Z,3.23
2019-01-26T14:06:28.735Z,3.22
2019-01-26T14:08:54.499Z,3.19
2019-01-26T14:11:20.252Z,3.23
2019-01-26T14:13:46.052Z,3.23
2019-01-26T14:16:11.768Z,3.20
2019-01-26T14:18:37.528Z,3.18
2019-01-26T14:21:03.387Z,3.16
2019-01-26T14:23:29.153Z,3.14
2019-01-26T14:25:54.929Z,3.11
2019-01-26T14:28:20.734Z,3.10
2019-01-26T14:34:13.568Z,3.09
2019-01-26T14:36:39.313Z,3.12
2019-01-26T14:39:46.768Z,3.10
2019-01-26T14:42:12.521Z,3.08
2019-01-26T14:44:38.302Z,3.10
2019-01-26T14:47:04.049Z,3.07
2019-01-26T14:49:29.830Z,3.06
2019-01-26T14:51:55.561Z,3.05
2019-01-26T14:54:21.318Z,3.06
2019-01-26T14:56:47.090Z,3.05
2019-01-26T14:59:12.847Z,3.05
2019-01-26T15:01:38.601Z,3.10
2019-01-26T15:04:04.370Z,3.10
2019-01-26T15:06:30.124Z,3.10
2019-01-26T15:08:55.893Z,3.08
2019-01-26T15:11:21.635Z,3.09
2019-01-26T15:13:47.384Z,3.04
2019-01-26T15:16:13.150Z,3.04
2019-01-26T15:18:38.900Z,3.00
2019-01-26T15:21:04.782Z,2.99
2019-01-26T15:23:30.534Z,3.00
2019-01-26T15:25:56.302Z,2.95
2019-01-26T15:28:22.049Z,2.94
2019-01-26T15:30:47.812Z,2.87
2019-01-26T15:33:13.563Z,2.87
2019-01-26T15:35:39.332Z,2.89
2019-01-26T15:41:32.163Z,2.81
2019-01-26T15:43:57.924Z,2.83
2019-01-26T15:46:23.692Z,2.82
2019-01-26T15:48:49.446Z,2.81
2019-01-26T15:51:15.216Z,2.81
2019-01-26T15:53:40.980Z,2.79
2019-01-26T15:56:06.741Z,2.79
2019-01-26T15:58:32.494Z,2.80
2019-01-26T16:00:58.280Z,2.78
2019-01-26T16:03:24.029Z,2.78
2019-01-26T16:05:49.804Z,2.78
2019-01-26T16:08:15.566Z,2.76
2019-01-26T16:10:41.332Z,2.75
2019-01-26T16:13:07.193Z,2.72
2019-01-26T16:16:14.656Z,2.72
2019-01-26T16:18:40.404Z,2.71
2019-01-26T16:21:06.176Z,2.71
2019-01-26T16:23:31.933Z,2.69
2019-01-26T16:25:57.702Z,2.68
2019-01-26T16:28:23.458Z,2.67
2019-01-26T16:30:49.228Z,2.67
2019-01-26T16:33:14.974Z,2.64
2019-01-26T16:35:40.747Z,2.65
2019-01-26T16:38:06.616Z,2.67
2019-01-26T16:41:14.061Z,2.67
2019-01-26T16:43:39.814Z,2.65
2019-01-26T16:46:05.570Z,2.63
2019-01-26T16:48:31.329Z,2.64
2019-01-26T16:50:57.211Z,2.60
2019-01-26T16:53:22.958Z,2.63
2019-01-26T16:55:48.715Z,2.66
2019-01-26T16:58:14.483Z,2.65
2019-01-26T17:01:21.917Z,2.70
2019-01-26T17:03:47.675Z,2.72
2019-01-26T17:08:47.407Z,2.79
2019-01-26T17:11:13.168Z,2.81
2019-01-26T17:13:38.920Z,2.78
2019-01-26T17:16:04.688Z,2.81
2019-01-26T17:18:30.432Z,2.80
2019-01-26T17:20:56.213Z,2.83
2019-01-26T17:23:21.957Z,2.82
2019-01-26T17:25:47.707Z,2.77
2019-01-26T17:28:13.462Z,2.73
2019-01-26T17:31:20.911Z,2.73
2019-01-26T17:33:46.665Z,2.71
2019-01-26T17:36:12.436Z,2.72
2019-01-26T17:38:38.189Z,2.73
2019-01-26T17:41:03.944Z,2.71
2019-01-26T17:43:29.745Z,2.72
2019-01-26T17:45:55.486Z,2.73
2019-01-26T17:48:21.245Z,2.73
2019-01-26T17:50:47.004Z,2.73
2019-01-26T17:53:12.771Z,2.71
2019-01-26T17:55:38.526Z,2.74
2019-01-26T17:58:04.302Z,2.72
2019-01-26T18:03:37.276Z,2.69
2019-01-26T18:06:03.230Z,2.67
2019-01-26T18:08:29.012Z,2.71
2019-01-26T18:10:54.757Z,2.74
2019-01-26T18:13:20.522Z,2.74
2019-01-26T18:15:46.275Z,2.77
2019-01-26T18:18:12.036Z,2.78
2019-01-26T18:20:37.790Z,2.95
2019-01-26T18:23:03.658Z,2.97
2019-01-26T18:25:49.303Z,3.01
2019-01-26T18:28:15.079Z,3.00
2019-01-26T18:30:40.842Z,3.06
2019-01-26T18:33:06.799Z,3.01
2019-01-26T18:35:32.554Z,3.05
2019-01-26T18:37:58.329Z,3.01
2019-01-26T18:41:05.789Z,3.06
2019-01-26T18:43:31.550Z,3.06
2019-01-26T18:45:57.298Z,3.09
2019-01-26T18:50:56.280Z,3.17
2019-01-26T18:53:22.295Z,3.21
2019-01-26T18:55:48.045Z,3.21
2019-01-26T18:58:13.896Z,3.25
2019-01-26T19:01:21.347Z,3.27
2019-01-26T19:04:28.788Z,3.26
2019-01-26T19:06:54.546Z,3.27
2019-01-26T19:09:20.313Z,3.32
2019-01-26T19:11:46.070Z,3.30
2019-01-26T19:14:11.836Z,3.35
2019-01-26T19:16:37.704Z,3.34
2019-01-26T19:19:03.570Z,3.38
2019-01-26T19:21:29.319Z,3.40
2019-01-26T19:23:55.087Z,3.38
2019-01-26T19:26:20.837Z,3.36
2019-01-26T19:28:46.584Z,3.38
2019-01-26T19:31:12.345Z,3.39
2019-01-26T19:34:19.854Z,3.37
2019-01-26T19:36:45.607Z,3.44
2019-01-26T19:39:11.376Z,3.49
2019-01-26T19:41:37.137Z,3.48
2019-01-26T19:47:16.408Z,3.56
2019-01-26T19:49:42.174Z,3.60
2019-01-26T19:52:08.027Z,3.59
2019-01-26T19:54:33.789Z,3.27
2019-01-26T19:56:59.548Z,3.66
2019-01-26T19:59:25.329Z,3.67
2019-01-26T20:01:51.079Z,3.69
2019-01-26T20:04:16.823Z,3.74
2019-01-26T20:06:42.590Z,3.78
2019-01-26T20:09:09.397Z,3.87
2019-01-26T20:11:36.118Z,3.89
2019-01-26T20:14:01.966Z,3.92
2019-01-26T20:16:27.730Z,3.97
2019-01-26T20:18:53.500Z,3.99
2019-01-26T20:21:19.276Z,4.01
2019-01-26T20:23:45.038Z,4.02
2019-01-26T20:26:10.814Z,4.06
2019-01-26T20:28:36.573Z,4.07
2019-01-26T20:31:44.042Z,4.06
2019-01-26T20:34:09.794Z,4.13
2019-01-26T20:36:35.562Z,4.16
2019-01-26T20:39:01.323Z,4.15
2019-01-26T20:41:27.085Z,4.13
2019-01-26T20:43:52.855Z,4.16
2019-01-26T20:46:18.628Z,4.16
2019-01-26T20:48:44.382Z,4.21
2019-01-26T20:57:37.468Z,4.23
2019-01-26T21:00:43.210Z,4.24
2019-01-26T21:03:09.003Z,4.19
2019-01-26T21:05:34.834Z,4.23
2019-01-26T21:08:00.559Z,4.26
2019-01-26T21:11:07.998Z,4.27
2019-01-26T21:13:34.059Z,4.27
2019-01-26T21:16:00.165Z,4.27
2019-01-26T21:18:26.283Z,4.25
2019-01-26T21:20:52.294Z,4.22
2019-01-26T21:23:18.258Z,4.23
2019-01-26T21:25:44.017Z,4.25
2019-01-26T21:28:09.781Z,4.27
2019-01-26T21:30:35.536Z,4.27
2019-01-26T21:33:01.314Z,4.19
2019-01-26T21:35:27.081Z,4.18
2019-01-26T21:37:53.311Z,4.16
2019-01-26T21:41:00.884Z,4.12
2019-01-26T21:43:26.919Z,4.17
2019-01-26T21:45:52.669Z,4.21
2019-01-26T21:48:18.816Z,4.19
2019-01-26T21:50:44.557Z,4.21
2019-01-26T21:53:10.320Z,4.19
2019-01-26T21:55:36.073Z,4.11
2019-01-26T21:58:01.833Z,4.10
2019-01-26T22:01:09.416Z,4.10
2019-01-26T22:03:55.526Z,4.11
2019-01-26T22:06:21.586Z,4.10
2019-01-26T22:08:47.373Z,4.07
2019-01-26T22:11:13.124Z,4.06
2019-01-26T22:13:38.893Z,4.06
2019-01-26T22:16:04.643Z,4.08
2019-01-26T22:18:30.408Z,4.09
2019-01-26T22:20:56.165Z,4.08
2019-01-26T22:23:21.948Z,4.08
2019-01-26T22:25:47.697Z,4.12
2019-01-26T22:28:13.464Z,4.10
2019-01-26T22:30:39.227Z,4.08
2019-01-26T22:33:05.001Z,4.07
2019-01-26T22:35:30.771Z,4.07
2019-01-26T22:37:56.538Z,4.07
2019-01-26T22:43:49.380Z,4.06
2019-01-26T22:46:15.124Z,4.07
2019-01-26T22:48:40.895Z,4.01
2019-01-26T22:51:06.652Z,4.05
2019-01-26T22:53:32.412Z,4.06
2019-01-26T22:56:05.192Z,4.01
2019-01-26T22:58:30.954Z,4.02
2019-01-26T23:05:05.546Z,4.03
2019-01-26T23:07:31.302Z,3.99
2019-01-26T23:10:38.762Z,3.94
2019-01-26T23:13:25.212Z,3.95
2019-01-26T23:16:32.634Z,3.90
2019-01-26T23:19:40.078Z,3.95
2019-01-26T23:26:14.592Z,3.93
2019-01-26T23:32:13.753Z,3.91
2019-01-26T23:34:39.516Z,3.89
2019-01-26T23:37:05.274Z,3.90
2019-01-26T23:39:31.047Z,3.86
2019-01-26T23:41:56.810Z,3.86
2019-01-26T23:44:22.580Z,3.87
2019-01-26T23:46:48.337Z,3.86
2019-01-26T23:49:14.091Z,3.82
2019-01-26T23:51:39.954Z,3.82
2019-01-26T23:54:05.712Z,3.88
2019-01-26T23:56:31.483Z,3.88
2019-01-26T23:58:57.235Z,3.91
